Time;durP1;ratioP1;P1;durP2;ratioP2;P2;SDS_P1;SDS_P2;PMS_P1;PMS_P2;Temp;Humidity;BMP_temperature;BMP_pressure;BME280_temperature;BME280_humidity;BME280_pressure;Samples;Min_cycle;Max_cycle;Signal;HPM_P1;HPM_P2
2021/09/29 00:01:12;;;;;;;41.67;18.83;;;;;;;;;;5101999;28;20040;-66
2021/09/29 00:03:38;;;;;;;27.92;13.90;;;;;;;;;;5110539;28;20026;-66
2021/09/29 00:06:05;;;;;;;32.38;15.25;;;;;;;;;;5112400;28;20451;-66
2021/09/29 00:08:31;;;;;;;33.78;15.40;;;;;;;;;;5111871;28;20031;-66
2021/09/29 00:10:57;;;;;;;45.72;17.27;;;;;;;;;;5107022;28;20034;-66
2021/09/29 00:13:25;;;;;;;42.22;18.30;;;;;;;;;;5111482;28;20030;-66
2021/09/29 00:15:51;;;;;;;45.30;20.40;;;;;;;;;;5111641;28;20028;-65
2021/09/29 00:18:18;;;;;;;49.95;18.63;;;;;;;;;;5111550;28;20023;-65
2021/09/29 00:20:44;;;;;;;44.58;18.90;;;;;;;;;;5111364;28;20035;-66
2021/09/29 00:23:10;;;;;;;33.55;16.42;;;;;;;;;;5111668;28;20387;-65
2021/09/29 00:25:36;;;;;;;39.53;15.60;;;;;;;;;;5113612;28;20428;-65
2021/09/29 00:28:02;;;;;;;35.10;16.40;;;;;;;;;;5112594;28;20039;-65
2021/09/29 00:30:31;;;;;;;34.65;15.35;;;;;;;;;;5106678;28;20016;-65
2021/09/29 00:33:02;;;;;;;36.15;15.88;;;;;;;;;;5103719;28;20039;-65
2021/09/29 00:35:28;;;;;;;36.00;16.10;;;;;;;;;;5111436;27;20031;-68
2021/09/29 00:37:54;;;;;;;33.25;14.38;;;;;;;;;;5112014;28;20093;-67
2021/09/29 00:40:19;;;;;;;33.28;15.82;;;;;;;;;;5110332;28;20473;-66
2021/09/29 00:42:45;;;;;;;32.92;15.48;;;;;;;;;;5110895;28;20034;-66
2021/09/29 00:45:12;;;;;;;37.50;16.55;;;;;;;;;;5111465;28;20028;-66
2021/09/29 00:47:38;;;;;;;39.63;16.58;;;;;;;;;;5111020;28;20020;-66
2021/09/29 00:50:05;;;;;;;38.72;16.60;;;;;;;;;;5110954;28;20032;-66
2021/09/29 00:52:32;;;;;;;44.63;17.60;;;;;;;;;;5114170;28;20494;-68
2021/09/29 00:54:58;;;;;;;36.15;16.30;;;;;;;;;;5112166;28;20123;-68
2021/09/29 00:57:24;;;;;;;35.47;16.75;;;;;;;;;;5111383;28;20020;-66
2021/09/29 00:59:50;;;;;;;37.53;16.48;;;;;;;;;;5110422;28;20698;-66
2021/09/29 01:02:16;;;;;;;44.92;17.75;;;;;;;;;;5097964;28;20073;-66
2021/09/29 01:04:42;;;;;;;30.80;15.80;;;;;;;;;;5112918;28;20026;-66
2021/09/29 01:07:08;;;;;;;27.83;14.75;;;;;;;;;;5112606;28;20066;-66
2021/09/29 01:09:34;;;;;;;32.47;15.55;;;;;;;;;;5111041;28;20051;-66
2021/09/29 01:12:02;;;;;;;33.47;15.23;;;;;;;;;;5104229;28;20088;-66
2021/09/29 01:14:31;;;;;;;36.55;16.95;;;;;;;;;;5110677;28;20024;-66
2021/09/29 01:16:58;;;;;;;37.30;16.52;;;;;;;;;;5094939;28;20372;-66
2021/09/29 01:19:37;;;;;;;33.25;15.63;;;;;;;;;;5114539;28;20031;-66
2021/09/29 01:22:09;;;;;;;31.77;16.23;;;;;;;;;;5112955;28;20034;-65
2021/09/29 01:24:47;;;;;;;34.03;15.73;;;;;;;;;;5110414;28;20035;-66
2021/09/29 01:27:14;;;;;;;33.78;14.90;;;;;;;;;;5110283;28;20028;-66
2021/09/29 01:29:41;;;;;;;35.33;16.40;;;;;;;;;;5110574;28;20046;-66
2021/09/29 01:32:07;;;;;;;37.50;15.55;;;;;;;;;;5097339;28;20385;-66
2021/09/29 01:34:33;;;;;;;43.22;16.48;;;;;;;;;;5113076;28;20062;-66
2021/09/29 01:37:04;;;;;;;48.05;15.85;;;;;;;;;;5112206;28;20416;-66
2021/09/29 01:39:30;;;;;;;38.83;15.88;;;;;;;;;;5110373;28;20398;-66
2021/09/29 01:41:56;;;;;;;43.20;18.10;;;;;;;;;;5105449;28;20024;-66
2021/09/29 01:44:22;;;;;;;40.10;16.02;;;;;;;;;;5105875;28;20490;-66
2021/09/29 01:46:49;;;;;;;35.40;16.05;;;;;;;;;;5110769;28;20020;-66
2021/09/29 01:49:27;;;;;;;44.20;16.75;;;;;;;;;;5110178;28;20028;-66
2021/09/29 01:51:54;;;;;;;39.22;16.13;;;;;;;;;;5111622;28;20367;-66
2021/09/29 01:54:21;;;;;;;32.87;15.50;;;;;;;;;;5110041;28;20019;-66
2021/09/29 01:56:47;;;;;;;31.42;14.93;;;;;;;;;;5110277;28;20028;-66
2021/09/29 01:59:14;;;;;;;34.15;15.13;;;;;;;;;;5108341;28;20031;-66
2021/09/29 02:01:41;;;;;;;29.10;14.60;;;;;;;;;;5098633;28;20055;-66
2021/09/29 02:04:07;;;;;;;26.48;13.00;;;;;;;;;;5111190;28;20467;-66
2021/09/29 02:06:47;;;;;;;29.98;14.52;;;;;;;;;;5109973;28;20106;-66
2021/09/29 02:09:13;;;;;;;30.58;15.25;;;;;;;;;;5109506;28;20027;-66
2021/09/29 02:11:40;;;;;;;39.92;15.13;;;;;;;;;;5100287;28;20023;-66
2021/09/29 02:14:06;;;;;;;38.97;15.05;;;;;;;;;;5094587;28;20030;-67
2021/09/29 02:16:32;;;;;;;35.10;16.48;;;;;;;;;;5112059;28;20020;-66
2021/09/29 02:18:58;;;;;;;38.85;15.88;;;;;;;;;;5111751;28;20024;-67
2021/09/29 02:21:24;;;;;;;38.13;15.75;;;;;;;;;;5109231;28;20403;-66
2021/09/29 02:23:50;;;;;;;40.13;16.48;;;;;;;;;;5108543;28;20106;-66
2021/09/29 02:26:16;;;;;;;38.28;15.90;;;;;;;;;;5109174;28;20050;-66
2021/09/29 02:28:43;;;;;;;36.30;14.88;;;;;;;;;;5111313;28;20047;-67
2021/09/29 02:31:09;;;;;;;36.67;15.52;;;;;;;;;;5098937;28;20103;-67
2021/09/29 02:33:35;;;;;;;40.15;15.98;;;;;;;;;;5106127;28;20070;-66
2021/09/29 02:36:01;;;;;;;43.80;15.32;;;;;;;;;;5109282;28;20040;-67
2021/09/29 02:38:27;;;;;;;41.65;15.45;;;;;;;;;;5109395;28;20024;-66
2021/09/29 02:40:53;;;;;;;38.28;15.60;;;;;;;;;;5105284;28;20161;-67
2021/09/29 02:43:19;;;;;;;33.22;14.65;;;;;;;;;;5111866;28;20115;-66
2021/09/29 02:45:45;;;;;;;31.95;15.02;;;;;;;;;;5108812;28;20020;-66
2021/09/29 02:48:11;;;;;;;35.13;14.90;;;;;;;;;;5108902;28;20056;-66
2021/09/29 02:50:37;;;;;;;40.55;16.15;;;;;;;;;;5108769;28;20023;-66
2021/09/29 02:53:03;;;;;;;39.90;15.75;;;;;;;;;;5108956;28;20024;-66
2021/09/29 02:55:30;;;;;;;36.47;15.00;;;;;;;;;;5111479;28;20030;-66
2021/09/29 02:57:55;;;;;;;35.80;15.50;;;;;;;;;;5109217;28;20072;-67
2021/09/29 03:00:21;;;;;;;29.52;14.45;;;;;;;;;;5104826;28;20040;-67
2021/09/29 03:02:47;;;;;;;36.70;14.95;;;;;;;;;;5099171;28;20047;-67
2021/09/29 03:05:13;;;;;;;40.10;14.88;;;;;;;;;;5108726;28;20035;-67
2021/09/29 03:07:39;;;;;;;38.13;15.15;;;;;;;;;;5110488;28;20034;-67
2021/09/29 03:10:06;;;;;;;36.95;14.70;;;;;;;;;;5107572;28;20460;-67
2021/09/29 03:12:32;;;;;;;34.25;14.05;;;;;;;;;;5105746;28;20035;-67
2021/09/29 03:14:58;;;;;;;37.13;14.50;;;;;;;;;;5108680;28;20019;-67
2021/09/29 03:17:24;;;;;;;36.25;15.57;;;;;;;;;;5108071;28;20030;-67
2021/09/29 03:19:50;;;;;;;38.53;15.25;;;;;;;;;;5109037;28;20100;-67
2021/09/29 03:22:16;;;;;;;33.00;14.95;;;;;;;;;;5110708;28;20094;-67
2021/09/29 03:24:42;;;;;;;34.35;13.85;;;;;;;;;;5101053;28;20390;-66
2021/09/29 03:27:08;;;;;;;39.35;14.85;;;;;;;;;;5099135;28;20023;-67
2021/09/29 03:29:35;;;;;;;34.42;14.60;;;;;;;;;;5101133;28;20048;-66
2021/09/29 03:32:01;;;;;;;32.78;14.45;;;;;;;;;;5102151;28;20059;-67
2021/09/29 03:34:27;;;;;;;26.13;13.27;;;;;;;;;;5098405;28;20380;-66
2021/09/29 03:36:53;;;;;;;24.48;12.07;;;;;;;;;;5101287;28;20100;-67
2021/09/29 03:39:20;;;;;;;31.63;14.30;;;;;;;;;;5101715;28;20022;-67
2021/09/29 03:41:46;;;;;;;32.63;14.13;;;;;;;;;;5103169;28;20028;-67
2021/09/29 03:44:12;;;;;;;39.55;15.65;;;;;;;;;;5108294;28;20024;-65
2021/09/29 03:46:38;;;;;;;42.17;16.17;;;;;;;;;;5110135;28;20039;-67
2021/09/29 03:49:05;;;;;;;41.53;15.95;;;;;;;;;;5109333;28;20110;-67
2021/09/29 03:51:31;;;;;;;34.15;15.60;;;;;;;;;;5107867;28;20016;-67
2021/09/29 03:53:58;;;;;;;39.63;15.93;;;;;;;;;;5107570;28;20090;-66
2021/09/29 03:56:24;;;;;;;43.00;16.48;;;;;;;;;;5108316;28;20478;-66
2021/09/29 03:58:50;;;;;;;32.67;14.63;;;;;;;;;;5109248;28;20393;-66
2021/09/29 04:01:16;;;;;;;32.97;14.65;;;;;;;;;;5098795;28;20032;-67
2021/09/29 04:03:42;;;;;;;34.10;13.98;;;;;;;;;;5106532;28;20475;-66
2021/09/29 04:06:09;;;;;;;42.25;15.65;;;;;;;;;;5108003;28;20050;-66
2021/09/29 04:08:35;;;;;;;41.38;15.45;;;;;;;;;;5107635;28;20020;-66
2021/09/29 04:11:01;;;;;;;44.42;15.95;;;;;;;;;;5103255;28;20192;-67
2021/09/29 04:13:28;;;;;;;43.10;16.08;;;;;;;;;;5107233;28;20020;-66
2021/09/29 04:15:54;;;;;;;51.78;15.75;;;;;;;;;;5102539;28;20016;-67
2021/09/29 04:18:21;;;;;;;50.28;16.65;;;;;;;;;;5102037;28;20035;-66
2021/09/29 04:20:47;;;;;;;41.97;15.85;;;;;;;;;;5098763;28;20123;-67
2021/09/29 04:23:13;;;;;;;46.38;16.38;;;;;;;;;;5096805;28;20375;-66
2021/09/29 04:25:40;;;;;;;42.20;15.57;;;;;;;;;;5106259;28;20059;-66
2021/09/29 04:28:07;;;;;;;38.28;15.35;;;;;;;;;;5101048;28;20364;-66
2021/09/29 04:30:33;;;;;;;45.38;16.17;;;;;;;;;;5105267;28;20030;-66
2021/09/29 04:33:00;;;;;;;40.25;15.32;;;;;;;;;;5101893;28;20471;-66
2021/09/29 04:35:26;;;;;;;40.37;15.63;;;;;;;;;;5100778;28;20027;-66
2021/09/29 04:37:52;;;;;;;46.13;15.68;;;;;;;;;;5102098;28;20276;-67
2021/09/29 04:40:18;;;;;;;38.58;15.07;;;;;;;;;;5102071;28;20471;-67
2021/09/29 04:42:44;;;;;;;46.35;16.35;;;;;;;;;;5103339;28;20024;-66
2021/09/29 04:45:10;;;;;;;199.07;17.85;;;;;;;;;;5103333;28;20030;-66
2021/09/29 04:47:36;;;;;;;45.88;16.13;;;;;;;;;;5105619;28;20019;-66
2021/09/29 04:50:03;;;;;;;50.17;15.85;;;;;;;;;;5108331;28;20088;-67
2021/09/29 04:52:29;;;;;;;65.20;19.20;;;;;;;;;;5105778;28;20019;-68
2021/09/29 04:54:55;;;;;;;66.72;16.77;;;;;;;;;;5104765;28;20036;-68
2021/09/29 04:57:21;;;;;;;56.25;17.20;;;;;;;;;;5109069;28;20022;-68
2021/09/29 04:59:47;;;;;;;59.45;16.75;;;;;;;;;;5110697;28;20387;-68
2021/09/29 05:02:14;;;;;;;98.97;18.75;;;;;;;;;;5097887;28;20047;-70
2021/09/29 05:04:40;;;;;;;90.25;19.33;;;;;;;;;;5113098;28;20024;-69
2021/09/29 05:07:06;;;;;;;55.22;18.13;;;;;;;;;;5112279;28;20104;-68
2021/09/29 05:09:32;;;;;;;64.82;18.90;;;;;;;;;;5111242;28;20020;-68
2021/09/29 05:12:25;;;;;;;64.57;18.85;;;;;;;;;;5109775;28;20423;-68
2021/09/29 05:14:51;;;;;;;48.38;17.08;;;;;;;;;;5101797;28;20375;-68
2021/09/29 05:17:17;;;;;;;53.65;17.33;;;;;;;;;;5104666;28;20027;-68
2021/09/29 05:19:43;;;;;;;54.20;17.48;;;;;;;;;;5105988;28;20459;-68
2021/09/29 05:22:09;;;;;;;45.75;17.70;;;;;;;;;;5105443;28;20068;-68
2021/09/29 05:24:35;;;;;;;37.55;15.00;;;;;;;;;;5110383;28;20028;-68
2021/09/29 05:27:01;;;;;;;38.78;16.85;;;;;;;;;;5110638;28;20462;-68
2021/09/29 05:29:27;;;;;;;43.70;16.35;;;;;;;;;;5110852;28;20138;-68
2021/09/29 05:31:53;;;;;;;76.05;16.85;;;;;;;;;;5097819;28;20460;-68
2021/09/29 05:34:20;;;;;;;319.98;22.08;;;;;;;;;;5111831;28;20028;-68
2021/09/29 05:36:46;;;;;;;143.15;19.35;;;;;;;;;;5110220;28;20035;-68
2021/09/29 05:39:13;;;;;;;208.60;20.50;;;;;;;;;;5110198;28;20015;-68
2021/09/29 05:41:39;;;;;;;98.78;18.40;;;;;;;;;;5105451;28;20076;-68
2021/09/29 05:44:05;;;;;;;110.90;18.88;;;;;;;;;;5105957;28;20019;-67
2021/09/29 05:46:31;;;;;;;62.10;17.98;;;;;;;;;;5106133;28;20051;-71
2021/09/29 05:48:57;;;;;;;49.42;17.92;;;;;;;;;;5104821;28;20046;-67
2021/09/29 05:51:23;;;;;;;49.47;17.95;;;;;;;;;;5102453;28;20094;-70
2021/09/29 05:53:49;;;;;;;54.17;19.00;;;;;;;;;;5105061;28;20020;-67
2021/09/29 05:56:16;;;;;;;53.00;17.85;;;;;;;;;;5104254;28;20016;-66
2021/09/29 05:58:42;;;;;;;55.15;19.42;;;;;;;;;;5101956;28;20026;-68
2021/09/29 06:01:09;;;;;;;42.13;17.27;;;;;;;;;;5108196;28;20031;-63
2021/09/29 06:03:35;;;;;;;38.88;15.95;;;;;;;;;;5104158;28;20426;-63
2021/09/29 06:06:01;;;;;;;39.00;14.70;;;;;;;;;;5106394;28;20035;-62
2021/09/29 06:08:27;;;;;;;35.55;16.08;;;;;;;;;;5103265;28;20027;-64
2021/09/29 06:10:53;;;;;;;35.58;16.02;;;;;;;;;;5104503;28;20099;-63
2021/09/29 06:13:20;;;;;;;37.28;16.08;;;;;;;;;;5105753;28;20027;-63
2021/09/29 06:15:47;;;;;;;44.40;17.67;;;;;;;;;;5106175;28;20059;-62
2021/09/29 06:18:14;;;;;;;45.72;17.92;;;;;;;;;;5104756;28;20107;-63
2021/09/29 06:20:48;;;;;;;47.78;19.15;;;;;;;;;;5100164;28;20467;-63
2021/09/29 06:23:15;;;;;;;54.53;19.25;;;;;;;;;;5102799;28;20030;-63
2021/09/29 06:25:41;;;;;;;52.70;18.00;;;;;;;;;;5103432;28;20441;-63
2021/09/29 06:28:07;;;;;;;60.45;19.88;;;;;;;;;;5103025;28;20024;-63
2021/09/29 06:30:33;;;;;;;63.25;19.85;;;;;;;;;;5108377;28;20088;-63
2021/09/29 06:32:59;;;;;;;54.50;19.25;;;;;;;;;;5100645;28;20031;-63
2021/09/29 06:35:26;;;;;;;48.50;17.67;;;;;;;;;;5096785;28;20157;-63
2021/09/29 06:37:52;;;;;;;49.33;18.65;;;;;;;;;;5110470;28;20531;-63
2021/09/29 06:40:19;;;;;;;42.90;17.58;;;;;;;;;;5108222;28;20125;-63
2021/09/29 06:42:46;;;;;;;38.80;17.25;;;;;;;;;;5108522;28;20023;-63
2021/09/29 06:45:14;;;;;;;38.03;16.70;;;;;;;;;;5106185;28;20414;-63
2021/09/29 06:47:40;;;;;;;35.03;15.63;;;;;;;;;;5102222;28;20474;-63
2021/09/29 06:50:07;;;;;;;32.63;16.23;;;;;;;;;;5104443;28;20024;-63
2021/09/29 06:52:33;;;;;;;40.08;17.33;;;;;;;;;;5103887;28;20582;-63
2021/09/29 06:54:59;;;;;;;33.38;16.45;;;;;;;;;;5100688;28;20024;-63
2021/09/29 06:57:25;;;;;;;33.53;15.60;;;;;;;;;;5102314;28;20028;-63
2021/09/29 06:59:51;;;;;;;33.03;16.25;;;;;;;;;;5102717;28;20482;-63
2021/09/29 07:02:17;;;;;;;31.42;16.00;;;;;;;;;;5102804;28;20116;-62
2021/09/29 07:04:43;;;;;;;37.67;16.35;;;;;;;;;;5100266;28;20489;-63
2021/09/29 07:07:09;;;;;;;30.30;15.70;;;;;;;;;;5101666;28;20204;-63
2021/09/29 07:09:35;;;;;;;27.90;15.02;;;;;;;;;;5099526;28;20059;-63
2021/09/29 07:12:01;;;;;;;35.63;15.90;;;;;;;;;;5105527;28;20440;-63
2021/09/29 07:14:27;;;;;;;36.83;16.77;;;;;;;;;;5103021;28;20066;-63
2021/09/29 07:16:54;;;;;;;41.20;18.05;;;;;;;;;;5101369;28;20131;-63
2021/09/29 07:19:20;;;;;;;35.92;17.50;;;;;;;;;;5103871;28;20069;-64
2021/09/29 07:21:46;;;;;;;34.90;17.50;;;;;;;;;;5101500;28;20127;-63
2021/09/29 07:24:12;;;;;;;37.47;16.73;;;;;;;;;;5104554;28;20051;-63
2021/09/29 07:26:38;;;;;;;29.52;14.02;;;;;;;;;;5100852;28;20058;-63
2021/09/29 07:29:04;;;;;;;27.02;13.10;;;;;;;;;;5102205;28;20040;-63
2021/09/29 07:31:30;;;;;;;24.13;12.77;;;;;;;;;;5098425;28;20426;-62
2021/09/29 07:33:57;;;;;;;22.77;12.23;;;;;;;;;;5109154;28;20031;-64
2021/09/29 07:36:23;;;;;;;23.42;11.30;;;;;;;;;;5106945;28;20027;-67
2021/09/29 07:38:49;;;;;;;17.05;10.00;;;;;;;;;;5108096;28;20027;-64
2021/09/29 07:41:15;;;;;;;20.48;10.73;;;;;;;;;;5103232;28;20032;-63
2021/09/29 07:43:41;;;;;;;22.83;12.00;;;;;;;;;;5110678;28;20423;-63
2021/09/29 07:46:07;;;;;;;22.90;12.45;;;;;;;;;;5105778;28;20051;-63
2021/09/29 07:48:33;;;;;;;23.65;12.05;;;;;;;;;;5107903;28;20059;-63
2021/09/29 07:51:00;;;;;;;24.80;12.57;;;;;;;;;;5107516;28;20027;-64
2021/09/29 07:53:26;;;;;;;24.17;11.85;;;;;;;;;;5108308;28;20027;-63
2021/09/29 07:55:55;;;;;;;26.83;12.77;;;;;;;;;;5108718;28;20039;-63
2021/09/29 07:58:25;;;;;;;24.25;12.10;;;;;;;;;;5110713;28;20471;-64
2021/09/29 08:00:51;;;;;;;23.48;11.68;;;;;;;;;;5101989;28;20437;-64
2021/09/29 08:03:17;;;;;;;22.02;11.90;;;;;;;;;;5108147;28;20072;-64
2021/09/29 08:05:43;;;;;;;23.23;11.05;;;;;;;;;;5107642;28;20104;-63
2021/09/29 08:08:10;;;;;;;24.38;11.85;;;;;;;;;;5107334;28;20456;-64
2021/09/29 08:10:36;;;;;;;20.60;11.98;;;;;;;;;;5105528;28;20034;-64
2021/09/29 08:13:02;;;;;;;19.55;11.82;;;;;;;;;;5108859;28;20081;-64
2021/09/29 08:15:28;;;;;;;17.90;11.50;;;;;;;;;;5107894;28;20106;-64
2021/09/29 08:17:57;;;;;;;22.17;11.82;;;;;;;;;;5107846;28;20012;-64
2021/09/29 08:20:27;;;;;;;18.95;11.45;;;;;;;;;;5107097;28;20032;-64
2021/09/29 08:22:59;;;;;;;18.50;10.35;;;;;;;;;;5112135;28;20102;-64
2021/09/29 08:33:21;;;;;;;18.75;10.25;;;;;;;;;;5085765;28;20035;-64
2021/09/29 08:38:33;;;;;;;17.92;10.65;;;;;;;;;;5111625;28;20032;-64
2021/09/29 08:46:17;;;;;;;16.98;10.15;;;;;;;;;;5113057;28;20046;-65
2021/09/29 08:49:00;;;;;;;31.00;12.32;;;;;;;;;;5111354;28;20032;-64
2021/09/29 08:54:20;;;;;;;24.05;11.18;;;;;;;;;;5110823;28;20027;-64
2021/09/29 09:16:47;;;;;;;19.58;9.70;;;;;;;;;;5113084;28;20411;-64
2021/09/29 09:19:14;;;;;;;16.77;9.55;;;;;;;;;;5094378;28;20035;-64
2021/09/29 09:21:54;;;;;;;16.10;8.88;;;;;;;;;;5110823;28;20032;-63
2021/09/29 09:24:24;;;;;;;18.10;9.55;;;;;;;;;;5110904;28;20069;-64
2021/09/29 09:27:00;;;;;;;18.70;10.15;;;;;;;;;;5110604;28;20714;-64
2021/09/29 09:29:27;;;;;;;16.33;9.60;;;;;;;;;;5107464;28;20115;-63
2021/09/29 09:32:05;;;;;;;18.75;9.77;;;;;;;;;;5097115;28;20074;-63
2021/09/29 09:34:31;;;;;;;15.57;9.57;;;;;;;;;;5087922;28;21617;-64
2021/09/29 09:36:57;;;;;;;17.10;9.52;;;;;;;;;;5111402;28;20055;-64
2021/09/29 09:39:25;;;;;;;15.50;9.75;;;;;;;;;;5110128;28;20016;-63
2021/09/29 09:41:51;;;;;;;15.65;9.32;;;;;;;;;;5105765;28;20057;-63
2021/09/29 09:44:24;;;;;;;15.63;9.68;;;;;;;;;;5110626;28;20485;-63
2021/09/29 09:47:09;;;;;;;18.75;9.68;;;;;;;;;;5111552;28;20031;-63
2021/09/29 09:49:44;;;;;;;18.75;9.90;;;;;;;;;;5109122;28;20027;-63
2021/09/29 09:52:10;;;;;;;23.00;10.20;;;;;;;;;;5111873;28;20020;-63
2021/09/29 09:54:40;;;;;;;16.35;9.18;;;;;;;;;;5104306;28;20348;-62
2021/09/29 09:57:19;;;;;;;16.80;8.65;;;;;;;;;;5109896;28;20394;-63
2021/09/29 09:59:52;;;;;;;17.65;10.27;;;;;;;;;;5104124;28;20478;-62
2021/09/29 10:02:18;;;;;;;18.52;9.70;;;;;;;;;;5109678;28;20099;-63
2021/09/29 10:04:45;;;;;;;18.17;9.52;;;;;;;;;;5111919;27;20791;-63
2021/09/29 10:07:11;;;;;;;15.38;8.43;;;;;;;;;;5110855;28;20051;-64
2021/09/29 10:09:44;;;;;;;13.60;8.18;;;;;;;;;;5109937;28;20024;-63
2021/09/29 10:12:24;;;;;;;14.38;8.82;;;;;;;;;;5099496;28;20031;-63
2021/09/29 10:15:01;;;;;;;18.17;8.48;;;;;;;;;;5109694;28;20048;-63
2021/09/29 10:23:22;;;;;;;14.18;8.68;;;;;;;;;;5036285;28;20436;-63
2021/09/29 10:26:08;;;;;;;16.60;9.43;;;;;;;;;;5093977;28;20044;-64
2021/09/29 10:28:38;;;;;;;23.73;10.00;;;;;;;;;;5108540;28;20055;-61
2021/09/29 10:31:36;;;;;;;15.07;9.10;;;;;;;;;;5100250;27;20028;-61
2021/09/29 10:34:02;;;;;;;16.05;8.18;;;;;;;;;;5108556;28;20458;-61
2021/09/29 10:44:41;;;;;;;14.05;8.30;;;;;;;;;;5108969;28;20039;-62
2021/09/29 10:50:46;;;;;;;13.90;7.82;;;;;;;;;;5054332;28;20064;-62
2021/09/29 11:30:38;;;;;;;12.05;7.15;;;;;;;;;;5101831;28;20020;-66
2021/09/29 11:33:06;;;;;;;;;;;;;;;;;;5098402;28;20054;-66
2021/09/29 12:08:27;;;;;;;;;;;;;;;;;;5094346;28;20047;-65
2021/09/29 12:11:00;;;;;;;11.32;7.00;;;;;;;;;;5101846;28;20283;-65
2021/09/29 12:14:02;;;;;;;13.10;7.97;;;;;;;;;;5105764;28;20024;-65
2021/09/29 12:16:32;;;;;;;14.77;7.25;;;;;;;;;;5088512;28;20043;-66
2021/09/29 12:18:58;;;;;;;15.20;8.48;;;;;;;;;;5102649;28;20080;-66
2021/09/29 12:21:58;;;;;;;11.82;7.65;;;;;;;;;;5104160;28;20457;-66
2021/09/29 12:24:28;;;;;;;12.80;8.15;;;;;;;;;;5094974;28;20415;-65
2021/09/29 12:26:56;;;;;;;17.27;8.13;;;;;;;;;;5098492;28;20016;-66
2021/09/29 12:29:30;;;;;;;;;;;;;;;;;;5095055;28;20036;-64
2021/09/29 12:32:09;;;;;;;16.65;8.50;;;;;;;;;;5081532;28;19935;-66
2021/09/29 12:34:50;;;;;;;15.50;8.23;;;;;;;;;;5107371;28;20082;-66
2021/09/29 12:37:16;;;;;;;13.60;8.32;;;;;;;;;;5110326;28;20026;-66
2021/09/29 12:39:43;;;;;;;15.93;8.55;;;;;;;;;;5106565;28;20020;-66
2021/09/29 12:42:09;;;;;;;17.90;9.27;;;;;;;;;;5102776;28;20023;-65
2021/09/29 12:44:47;;;;;;;25.20;10.85;;;;;;;;;;5109544;28;20075;-66
2021/09/29 12:47:23;;;;;;;21.30;9.52;;;;;;;;;;5099101;28;20019;-65
2021/09/29 12:49:49;;;;;;;17.10;9.13;;;;;;;;;;5108282;28;20070;-65
2021/09/29 12:52:33;;;;;;;16.83;9.50;;;;;;;;;;5109247;28;20451;-65
2021/09/29 12:55:01;;;;;;;13.23;9.13;;;;;;;;;;5108214;28;20024;-65
2021/09/29 12:57:30;;;;;;;15.60;9.48;;;;;;;;;;5098925;28;20016;-65
2021/09/29 12:59:57;;;;;;;14.68;8.82;;;;;;;;;;5098675;28;20073;-65
2021/09/29 13:02:23;;;;;;;17.50;10.38;;;;;;;;;;5092854;28;20068;-65
2021/09/29 13:04:49;;;;;;;15.35;9.50;;;;;;;;;;5108662;28;20027;-65
2021/09/29 13:07:15;;;;;;;15.55;9.70;;;;;;;;;;5107817;28;20027;-65
2021/09/29 13:09:41;;;;;;;15.90;8.77;;;;;;;;;;5110875;28;20058;-68
2021/09/29 13:12:07;;;;;;;15.82;9.45;;;;;;;;;;5106177;28;20024;-66
2021/09/29 13:14:33;;;;;;;13.48;9.55;;;;;;;;;;5108411;28;20102;-67
2021/09/29 13:16:59;;;;;;;13.52;9.05;;;;;;;;;;5109320;28;20060;-66
2021/09/29 13:20:16;;;;;;;14.57;9.68;;;;;;;;;;5112681;28;20417;-64
2021/09/29 13:22:31;;;;;;;16.02;9.73;;;;;;;;;;5098505;28;20146;-66
2021/09/29 13:27:45;;;;;;;14.73;9.70;;;;;;;;;;5108479;28;20038;-66
2021/09/29 13:38:13;;;;;;;17.17;9.48;;;;;;;;;;5110839;28;20028;-66
2021/09/29 13:40:41;;;;;;;15.23;9.48;;;;;;;;;;5108269;28;20036;-66
2021/09/29 13:43:07;;;;;;;15.55;9.85;;;;;;;;;;5111561;28;20028;-65
2021/09/29 13:45:33;;;;;;;31.88;12.00;;;;;;;;;;5110390;28;20463;-65
2021/09/29 13:48:00;;;;;;;28.95;11.80;;;;;;;;;;5104350;28;20570;-65
2021/09/29 13:50:26;;;;;;;14.88;9.20;;;;;;;;;;5110486;28;20024;-65
2021/09/29 13:52:52;;;;;;;16.50;9.32;;;;;;;;;;5111378;28;20031;-67
2021/09/29 13:55:20;;;;;;;16.77;9.70;;;;;;;;;;5112447;28;20023;-64
2021/09/29 13:57:54;;;;;;;15.57;9.73;;;;;;;;;;5110054;28;20027;-66
2021/09/29 14:32:32;;;;;;;17.17;8.85;;;;;;;;;;5098000;28;20027;-68
2021/09/29 14:34:58;;;;;;;15.82;9.13;;;;;;;;;;5093670;28;20442;-68
2021/09/29 14:37:24;;;;;;;15.45;9.35;;;;;;;;;;5108097;28;20123;-68
2021/09/29 14:39:50;;;;;;;15.50;9.65;;;;;;;;;;5109245;28;20102;-67
2021/09/29 14:42:16;;;;;;;16.45;9.57;;;;;;;;;;5104631;28;20031;-68
2021/09/29 14:44:43;;;;;;;17.33;9.23;;;;;;;;;;5108620;28;20055;-68
2021/09/29 14:47:12;;;;;;;17.58;9.68;;;;;;;;;;5109286;28;20052;-68
2021/09/29 14:49:44;;;;;;;26.45;10.18;;;;;;;;;;5111354;28;20019;-68
2021/09/29 14:52:13;;;;;;;15.77;9.85;;;;;;;;;;5109485;28;20024;-68
2021/09/29 14:54:39;;;;;;;23.08;10.02;;;;;;;;;;5108735;28;20027;-68
2021/09/29 14:57:10;;;;;;;18.33;9.35;;;;;;;;;;5108680;28;20107;-68
2021/09/29 14:59:40;;;;;;;17.50;10.70;;;;;;;;;;5109045;28;20020;-68
2021/09/29 15:02:06;;;;;;;15.55;9.60;;;;;;;;;;5095800;28;20040;-68
2021/09/29 15:04:32;;;;;;;17.63;9.13;;;;;;;;;;5111667;28;20382;-68
2021/09/29 15:06:58;;;;;;;17.35;9.95;;;;;;;;;;5107748;28;20023;-68
2021/09/29 15:09:24;;;;;;;14.63;9.43;;;;;;;;;;5108926;28;20023;-68
2021/09/29 15:11:51;;;;;;;16.63;9.82;;;;;;;;;;5104365;28;20031;-68
2021/09/29 15:14:44;;;;;;;15.05;9.55;;;;;;;;;;5108248;28;20034;-68
2021/09/29 15:17:14;;;;;;;17.58;9.85;;;;;;;;;;5093832;28;20081;-68
2021/09/29 15:19:53;;;;;;;16.30;10.27;;;;;;;;;;5111197;28;20031;-68
2021/09/29 15:24:55;;;;;;;14.07;9.38;;;;;;;;;;5107726;28;20098;-68
2021/09/29 15:30:14;;;;;;;15.70;9.70;;;;;;;;;;5106110;28;20040;-68
2021/09/29 15:48:56;;;;;;;18.48;9.38;;;;;;;;;;5108083;28;20036;-67
2021/09/29 15:59:25;;;;;;;20.83;10.50;;;;;;;;;;5092374;28;20411;-67
2021/09/29 16:01:57;;;;;;;17.38;11.20;;;;;;;;;;5106343;28;20051;-67
2021/09/29 16:06:59;;;;;;;18.38;10.20;;;;;;;;;;5106026;28;20088;-71
2021/09/29 16:22:53;;;;;;;20.08;11.50;;;;;;;;;;5094222;28;20047;-70
2021/09/29 16:30:39;;;;;;;21.00;11.30;;;;;;;;;;5090234;28;20453;-69
2021/09/29 16:33:29;;;;;;;18.17;11.45;;;;;;;;;;5099726;28;20024;-69
2021/09/29 16:35:52;;;;;;;22.20;11.23;;;;;;;;;;5104709;28;20043;-69
2021/09/29 16:38:18;;;;;;;18.48;11.15;;;;;;;;;;5106776;28;20024;-69
2021/09/29 16:40:44;;;;;;;21.80;11.95;;;;;;;;;;5097099;28;20039;-69
2021/09/29 16:43:11;;;;;;;22.60;11.48;;;;;;;;;;5106039;28;20427;-68
2021/09/29 16:45:38;;;;;;;24.27;11.73;;;;;;;;;;5108997;28;20024;-69
2021/09/29 16:48:05;;;;;;;19.83;11.43;;;;;;;;;;5109422;27;20020;-71
2021/09/29 16:50:47;;;;;;;25.42;12.75;;;;;;;;;;5108223;28;20498;-70
2021/09/29 16:53:13;;;;;;;19.05;11.40;;;;;;;;;;5100602;28;20438;-70
2021/09/29 16:55:42;;;;;;;18.90;11.57;;;;;;;;;;5112489;28;20031;-68
2021/09/29 16:58:19;;;;;;;26.08;11.80;;;;;;;;;;5104146;28;20032;-69
2021/09/29 17:00:50;;;;;;;23.20;11.40;;;;;;;;;;5097603;28;20036;-69
2021/09/29 17:03:16;;;;;;;23.02;11.52;;;;;;;;;;5104699;28;20020;-69
2021/09/29 17:05:42;;;;;;;21.98;12.40;;;;;;;;;;5109613;28;20035;-70
2021/09/29 17:08:10;;;;;;;23.13;12.27;;;;;;;;;;5102948;28;20020;-68
2021/09/29 17:10:36;;;;;;;23.53;12.33;;;;;;;;;;5105639;28;20016;-70
2021/09/29 17:13:03;;;;;;;22.15;12.63;;;;;;;;;;5111229;28;20627;-69
2021/09/29 17:15:29;;;;;;;21.77;11.68;;;;;;;;;;5110957;28;20027;-71
2021/09/29 17:17:55;;;;;;;22.17;11.73;;;;;;;;;;5106840;28;20015;-70
2021/09/29 17:20:21;;;;;;;23.85;12.80;;;;;;;;;;5102604;28;20134;-70
2021/09/29 17:22:47;;;;;;;26.92;12.32;;;;;;;;;;5103121;28;20035;-71
2021/09/29 17:25:13;;;;;;;27.25;13.20;;;;;;;;;;5104981;28;20047;-70
2021/09/29 17:27:39;;;;;;;22.45;12.25;;;;;;;;;;5105363;28;20079;-71
2021/09/29 17:30:08;;;;;;;23.42;14.05;;;;;;;;;;5102148;28;20309;-70
2021/09/29 17:35:34;;;;;;;27.17;14.60;;;;;;;;;;5110983;28;20030;-71
2021/09/29 17:53:55;;;;;;;24.02;13.65;;;;;;;;;;5109862;28;20038;-69
2021/09/29 17:56:21;;;;;;;31.85;15.25;;;;;;;;;;5109928;28;20184;-76
2021/09/29 17:58:48;;;;;;;27.17;14.40;;;;;;;;;;5111884;28;20099;-76
2021/09/29 18:01:20;;;;;;;34.03;15.00;;;;;;;;;;5100719;28;20040;-72
2021/09/29 18:03:57;;;;;;;34.75;15.73;;;;;;;;;;5107781;28;20494;-72
2021/09/29 18:06:43;;;;;;;31.40;15.43;;;;;;;;;;5105113;28;20031;-73
2021/09/29 18:09:10;;;;;;;27.83;13.80;;;;;;;;;;5110013;28;20131;-73
2021/09/29 18:11:36;;;;;;;28.67;13.43;;;;;;;;;;5105243;28;20020;-74
2021/09/29 18:14:03;;;;;;;27.85;14.05;;;;;;;;;;5109374;28;20012;-71
2021/09/29 18:16:29;;;;;;;24.08;13.60;;;;;;;;;;5112493;28;20027;-72
2021/09/29 18:18:55;;;;;;;32.42;14.35;;;;;;;;;;5104392;28;20030;-72
2021/09/29 18:21:21;;;;;;;27.90;14.15;;;;;;;;;;5100088;28;20132;-70
2021/09/29 18:23:47;;;;;;;26.13;13.85;;;;;;;;;;5098535;28;20051;-69
2021/09/29 18:26:13;;;;;;;30.75;14.10;;;;;;;;;;5101563;28;20039;-69